sensor_id;sensor_type;location;lat;lon;timestamp;P1;durP1;ratioP1;P2;durP2;ratioP2
75358;SDS011;64046;51.978;5.934;2022-12-07T00:00:08;8.77;;;4.68;;
75358;SDS011;64046;51.978;5.934;2022-12-07T00:02:38;6.85;;;4.45;;
75358;SDS011;64046;51.978;5.934;2022-12-07T00:05:07;9.05;;;4.90;;
75358;SDS011;64046;51.978;5.934;2022-12-07T00:07:36;9.70;;;4.32;;
75358;SDS011;64046;51.978;5.934;2022-12-07T00:10:09;9.80;;;4.82;;
75358;SDS011;64046;51.978;5.934;2022-12-07T00:12:38;7.63;;;3.80;;
75358;SDS011;64046;51.978;5.934;2022-12-07T00:15:07;7.75;;;4.18;;
75358;SDS011;64046;51.978;5.934;2022-12-07T00:17:37;5.97;;;3.63;;
75358;SDS011;64046;51.978;5.934;2022-12-07T00:20:07;8.02;;;4.35;;
75358;SDS011;64046;51.978;5.934;2022-12-07T00:22:37;5.53;;;3.50;;
75358;SDS011;64046;51.978;5.934;2022-12-07T00:25:08;7.82;;;4.63;;
75358;SDS011;64046;51.978;5.934;2022-12-07T00:27:38;5.45;;;3.30;;
75358;SDS011;64046;51.978;5.934;2022-12-07T00:30:07;9.85;;;4.50;;
75358;SDS011;64046;51.978;5.934;2022-12-07T00:32:37;8.80;;;4.30;;
75358;SDS011;64046;51.978;5.934;2022-12-07T00:35:07;8.07;;;4.28;;
75358;SDS011;64046;51.978;5.934;2022-12-07T00:37:36;5.95;;;3.33;;
75358;SDS011;64046;51.978;5.934;2022-12-07T00:40:09;7.70;;;4.45;;
75358;SDS011;64046;51.978;5.934;2022-12-07T00:42:39;9.60;;;3.50;;
75358;SDS011;64046;51.978;5.934;2022-12-07T00:45:08;7.85;;;4.47;;
75358;SDS011;64046;51.978;5.934;2022-12-07T00:47:38;4.00;;;3.00;;
75358;SDS011;64046;51.978;5.934;2022-12-07T00:50:07;5.63;;;2.97;;
75358;SDS011;64046;51.978;5.934;2022-12-07T00:52:37;6.75;;;3.42;;
75358;SDS011;64046;51.978;5.934;2022-12-07T00:55:09;10.57;;;4.25;;
75358;SDS011;64046;51.978;5.934;2022-12-07T00:57:38;6.70;;;4.30;;
75358;SDS011;64046;51.978;5.934;2022-12-07T01:00:08;7.38;;;3.78;;
75358;SDS011;64046;51.978;5.934;2022-12-07T01:02:37;10.65;;;4.93;;
75358;SDS011;64046;51.978;5.934;2022-12-07T01:05:07;7.20;;;4.25;;
75358;SDS011;64046;51.978;5.934;2022-12-07T01:07:37;7.05;;;4.72;;
75358;SDS011;64046;51.978;5.934;2022-12-07T01:10:09;10.25;;;4.75;;
75358;SDS011;64046;51.978;5.934;2022-12-07T01:12:39;8.05;;;4.07;;
75358;SDS011;64046;51.978;5.934;2022-12-07T01:15:09;8.38;;;4.80;;
75358;SDS011;64046;51.978;5.934;2022-12-07T01:17:38;7.47;;;4.20;;
75358;SDS011;64046;51.978;5.934;2022-12-07T01:20:08;6.60;;;4.13;;
75358;SDS011;64046;51.978;5.934;2022-12-07T01:22:38;8.32;;;4.93;;
75358;SDS011;64046;51.978;5.934;2022-12-07T01:25:11;5.30;;;3.70;;
75358;SDS011;64046;51.978;5.934;2022-12-07T01:27:40;10.32;;;5.72;;
75358;SDS011;64046;51.978;5.934;2022-12-07T01:30:10;10.05;;;5.32;;
75358;SDS011;64046;51.978;5.934;2022-12-07T01:32:40;9.48;;;4.72;;
75358;SDS011;64046;51.978;5.934;2022-12-07T01:35:09;7.90;;;4.82;;
75358;SDS011;64046;51.978;5.934;2022-12-07T01:37:39;9.35;;;4.90;;
75358;SDS011;64046;51.978;5.934;2022-12-07T01:40:11;6.80;;;4.57;;
75358;SDS011;64046;51.978;5.934;2022-12-07T01:42:41;8.57;;;5.20;;
75358;SDS011;64046;51.978;5.934;2022-12-07T01:48:13;8.40;;;4.80;;
75358;SDS011;64046;51.978;5.934;2022-12-07T01:50:46;10.10;;;4.95;;
75358;SDS011;64046;51.978;5.934;2022-12-07T01:53:17;6.97;;;4.78;;
75358;SDS011;64046;51.978;5.934;2022-12-07T01:55:50;11.68;;;4.78;;
75358;SDS011;64046;51.978;5.934;2022-12-07T01:58:21;8.48;;;4.90;;
75358;SDS011;64046;51.978;5.934;2022-12-07T02:00:52;7.45;;;4.70;;
75358;SDS011;64046;51.978;5.934;2022-12-07T02:03:22;16.70;;;5.20;;
75358;SDS011;64046;51.978;5.934;2022-12-07T02:05:55;8.75;;;4.15;;
75358;SDS011;64046;51.978;5.934;2022-12-07T02:08:27;8.88;;;4.70;;
75358;SDS011;64046;51.978;5.934;2022-12-07T02:10:59;6.40;;;4.45;;
75358;SDS011;64046;51.978;5.934;2022-12-07T02:13:29;6.40;;;4.13;;
75358;SDS011;64046;51.978;5.934;2022-12-07T02:16:09;8.25;;;4.95;;
75358;SDS011;64046;51.978;5.934;2022-12-07T02:18:53;7.68;;;4.25;;
75358;SDS011;64046;51.978;5.934;2022-12-07T02:21:35;8.60;;;4.85;;
75358;SDS011;64046;51.978;5.934;2022-12-07T02:24:19;7.70;;;4.30;;
75358;SDS011;64046;51.978;5.934;2022-12-07T02:30:08;5.53;;;3.72;;
75358;SDS011;64046;51.978;5.934;2022-12-07T02:32:42;11.30;;;4.57;;
75358;SDS011;64046;51.978;5.934;2022-12-07T02:35:19;7.75;;;4.13;;
75358;SDS011;64046;51.978;5.934;2022-12-07T02:37:53;6.18;;;3.65;;
75358;SDS011;64046;51.978;5.934;2022-12-07T02:40:31;7.32;;;3.80;;
75358;SDS011;64046;51.978;5.934;2022-12-07T02:43:06;7.70;;;3.33;;
75358;SDS011;64046;51.978;5.934;2022-12-07T02:45:43;4.65;;;2.80;;
75358;SDS011;64046;51.978;5.934;2022-12-07T02:48:14;7.25;;;3.20;;
75358;SDS011;64046;51.978;5.934;2022-12-07T02:50:48;13.45;;;4.78;;
75358;SDS011;64046;51.978;5.934;2022-12-07T02:53:33;6.80;;;3.40;;
75358;SDS011;64046;51.978;5.934;2022-12-07T02:56:07;6.07;;;3.28;;
75358;SDS011;64046;51.978;5.934;2022-12-07T02:58:45;9.70;;;4.10;;
75358;SDS011;64046;51.978;5.934;2022-12-07T03:01:28;9.18;;;3.28;;
75358;SDS011;64046;51.978;5.934;2022-12-07T03:04:06;6.65;;;3.20;;
75358;SDS011;64046;51.978;5.934;2022-12-07T03:06:50;5.07;;;2.90;;
75358;SDS011;64046;51.978;5.934;2022-12-07T03:09:26;6.32;;;3.40;;
75358;SDS011;64046;51.978;5.934;2022-12-07T03:12:00;12.15;;;3.72;;
75358;SDS011;64046;51.978;5.934;2022-12-07T03:14:39;10.70;;;3.63;;
75358;SDS011;64046;51.978;5.934;2022-12-07T03:17:15;6.28;;;3.03;;
75358;SDS011;64046;51.978;5.934;2022-12-07T03:19:47;11.55;;;3.45;;
75358;SDS011;64046;51.978;5.934;2022-12-07T03:22:20;5.72;;;3.28;;
75358;SDS011;64046;51.978;5.934;2022-12-07T03:24:52;8.82;;;3.60;;
75358;SDS011;64046;51.978;5.934;2022-12-07T03:27:26;8.57;;;3.58;;
75358;SDS011;64046;51.978;5.934;2022-12-07T03:30:02;8.20;;;3.75;;
75358;SDS011;64046;51.978;5.934;2022-12-07T03:32:36;8.82;;;3.00;;
75358;SDS011;64046;51.978;5.934;2022-12-07T03:35:11;6.35;;;3.20;;
75358;SDS011;64046;51.978;5.934;2022-12-07T03:37:45;7.55;;;3.10;;
75358;SDS011;64046;51.978;5.934;2022-12-07T03:40:20;10.20;;;3.60;;
75358;SDS011;64046;51.978;5.934;2022-12-07T03:42:54;12.02;;;3.38;;
75358;SDS011;64046;51.978;5.934;2022-12-07T03:45:26;6.28;;;2.42;;
75358;SDS011;64046;51.978;5.934;2022-12-07T03:48:05;15.13;;;3.40;;
75358;SDS011;64046;51.978;5.934;2022-12-07T03:50:43;10.43;;;3.03;;
75358;SDS011;64046;51.978;5.934;2022-12-07T03:53:18;7.25;;;3.88;;
75358;SDS011;64046;51.978;5.934;2022-12-07T03:55:50;11.00;;;3.30;;
75358;SDS011;64046;51.978;5.934;2022-12-07T03:58:21;6.93;;;2.25;;
75358;SDS011;64046;51.978;5.934;2022-12-07T04:00:53;11.88;;;2.72;;
75358;SDS011;64046;51.978;5.934;2022-12-07T04:03:25;7.85;;;2.60;;
75358;SDS011;64046;51.978;5.934;2022-12-07T04:05:54;7.40;;;2.35;;
75358;SDS011;64046;51.978;5.934;2022-12-07T04:08:24;7.20;;;2.63;;
75358;SDS011;64046;51.978;5.934;2022-12-07T04:10:53;4.55;;;2.10;;
75358;SDS011;64046;51.978;5.934;2022-12-07T04:13:23;8.70;;;2.78;;
75358;SDS011;64046;51.978;5.934;2022-12-07T04:15:52;11.98;;;2.70;;
75358;SDS011;64046;51.978;5.934;2022-12-07T04:18:21;6.07;;;2.15;;
75358;SDS011;64046;51.978;5.934;2022-12-07T04:20:53;5.35;;;2.42;;
75358;SDS011;64046;51.978;5.934;2022-12-07T04:23:22;6.10;;;2.70;;
75358;SDS011;64046;51.978;5.934;2022-12-07T04:25:51;4.97;;;2.05;;
75358;SDS011;64046;51.978;5.934;2022-12-07T04:28:20;4.80;;;2.10;;
75358;SDS011;64046;51.978;5.934;2022-12-07T04:30:49;6.75;;;2.53;;
75358;SDS011;64046;51.978;5.934;2022-12-07T04:33:18;4.45;;;2.60;;
75358;SDS011;64046;51.978;5.934;2022-12-07T04:35:48;6.00;;;2.53;;
75358;SDS011;64046;51.978;5.934;2022-12-07T04:38:19;15.35;;;3.95;;
75358;SDS011;64046;51.978;5.934;2022-12-07T04:40:49;12.40;;;3.58;;
75358;SDS011;64046;51.978;5.934;2022-12-07T04:43:18;5.88;;;2.67;;
75358;SDS011;64046;51.978;5.934;2022-12-07T04:45:47;6.88;;;2.35;;
75358;SDS011;64046;51.978;5.934;2022-12-07T04:48:17;8.00;;;3.33;;
75358;SDS011;64046;51.978;5.934;2022-12-07T04:50:47;4.22;;;2.63;;
75358;SDS011;64046;51.978;5.934;2022-12-07T04:53:17;9.75;;;3.00;;
75358;SDS011;64046;51.978;5.934;2022-12-07T04:55:48;6.78;;;3.10;;
75358;SDS011;64046;51.978;5.934;2022-12-07T04:58:18;7.60;;;2.63;;
75358;SDS011;64046;51.978;5.934;2022-12-07T05:00:47;8.77;;;2.65;;
75358;SDS011;64046;51.978;5.934;2022-12-07T05:03:16;8.23;;;2.72;;
75358;SDS011;64046;51.978;5.934;2022-12-07T05:05:45;9.85;;;2.65;;
75358;SDS011;64046;51.978;5.934;2022-12-07T05:08:14;7.32;;;2.70;;
75358;SDS011;64046;51.978;5.934;2022-12-07T05:10:46;9.13;;;2.67;;
75358;SDS011;64046;51.978;5.934;2022-12-07T05:13:17;7.80;;;2.92;;
75358;SDS011;64046;51.978;5.934;2022-12-07T05:15:46;6.20;;;2.55;;
75358;SDS011;64046;51.978;5.934;2022-12-07T05:18:15;5.28;;;2.58;;
75358;SDS011;64046;51.978;5.934;2022-12-07T05:20:44;8.02;;;3.05;;
75358;SDS011;64046;51.978;5.934;2022-12-07T05:23:14;4.28;;;2.40;;
75358;SDS011;64046;51.978;5.934;2022-12-07T05:25:46;4.07;;;2.25;;
75358;SDS011;64046;51.978;5.934;2022-12-07T05:28:15;10.02;;;3.03;;
75358;SDS011;64046;51.978;5.934;2022-12-07T05:30:44;5.78;;;2.38;;
75358;SDS011;64046;51.978;5.934;2022-12-07T05:33:14;3.22;;;2.10;;
75358;SDS011;64046;51.978;5.934;2022-12-07T05:35:43;8.23;;;3.20;;
75358;SDS011;64046;51.978;5.934;2022-12-07T05:38:12;7.78;;;2.92;;
75358;SDS011;64046;51.978;5.934;2022-12-07T05:40:42;12.85;;;3.00;;
75358;SDS011;64046;51.978;5.934;2022-12-07T05:43:13;8.88;;;3.63;;
75358;SDS011;64046;51.978;5.934;2022-12-07T05:45:42;4.43;;;2.20;;
75358;SDS011;64046;51.978;5.934;2022-12-07T05:48:12;4.47;;;2.45;;
75358;SDS011;64046;51.978;5.934;2022-12-07T05:50:41;4.78;;;2.42;;
75358;SDS011;64046;51.978;5.934;2022-12-07T05:53:11;6.43;;;2.85;;
75358;SDS011;64046;51.978;5.934;2022-12-07T05:55:40;5.38;;;2.67;;
75358;SDS011;64046;51.978;5.934;2022-12-07T05:58:09;5.72;;;2.65;;
75358;SDS011;64046;51.978;5.934;2022-12-07T06:00:53;9.00;;;2.80;;
75358;SDS011;64046;51.978;5.934;2022-12-07T06:03:23;5.90;;;2.80;;
75358;SDS011;64046;51.978;5.934;2022-12-07T06:05:52;4.13;;;2.33;;
75358;SDS011;64046;51.978;5.934;2022-12-07T06:08:22;4.00;;;2.47;;
75358;SDS011;64046;51.978;5.934;2022-12-07T06:10:51;6.13;;;2.47;;
75358;SDS011;64046;51.978;5.934;2022-12-07T06:13:40;6.30;;;2.17;;
75358;SDS011;64046;51.978;5.934;2022-12-07T06:16:09;5.43;;;2.50;;
75358;SDS011;64046;51.978;5.934;2022-12-07T06:18:38;7.47;;;2.80;;
75358;SDS011;64046;51.978;5.934;2022-12-07T06:21:08;4.32;;;2.30;;
75358;SDS011;64046;51.978;5.934;2022-12-07T06:23:37;6.82;;;2.67;;
75358;SDS011;64046;51.978;5.934;2022-12-07T06:26:06;8.02;;;3.35;;
75358;SDS011;64046;51.978;5.934;2022-12-07T06:28:35;12.35;;;3.25;;
75358;SDS011;64046;51.978;5.934;2022-12-07T06:31:04;4.32;;;2.30;;
75358;SDS011;64046;51.978;5.934;2022-12-07T06:33:36;9.52;;;2.75;;
75358;SDS011;64046;51.978;5.934;2022-12-07T06:36:06;5.63;;;3.10;;
75358;SDS011;64046;51.978;5.934;2022-12-07T06:38:36;7.05;;;3.00;;
75358;SDS011;64046;51.978;5.934;2022-12-07T06:41:05;4.97;;;2.50;;
75358;SDS011;64046;51.978;5.934;2022-12-07T06:43:35;5.80;;;2.20;;
75358;SDS011;64046;51.978;5.934;2022-12-07T06:46:04;7.20;;;3.15;;
75358;SDS011;64046;51.978;5.934;2022-12-07T06:48:36;7.60;;;3.30;;
75358;SDS011;64046;51.978;5.934;2022-12-07T06:51:05;12.85;;;2.70;;
75358;SDS011;64046;51.978;5.934;2022-12-07T06:53:34;9.63;;;3.45;;
75358;SDS011;64046;51.978;5.934;2022-12-07T06:56:04;8.10;;;2.65;;
75358;SDS011;64046;51.978;5.934;2022-12-07T06:58:34;6.35;;;2.83;;
75358;SDS011;64046;51.978;5.934;2022-12-07T07:01:07;4.75;;;2.45;;
75358;SDS011;64046;51.978;5.934;2022-12-07T07:03:40;4.03;;;2.60;;
75358;SDS011;64046;51.978;5.934;2022-12-07T07:06:10;7.32;;;3.50;;
75358;SDS011;64046;51.978;5.934;2022-12-07T07:08:39;6.35;;;3.10;;
75358;SDS011;64046;51.978;5.934;2022-12-07T07:11:09;7.43;;;2.80;;
75358;SDS011;64046;51.978;5.934;2022-12-07T07:13:38;5.57;;;2.38;;
75358;SDS011;64046;51.978;5.934;2022-12-07T07:16:07;6.45;;;2.80;;
75358;SDS011;64046;51.978;5.934;2022-12-07T07:18:39;10.82;;;3.05;;
75358;SDS011;64046;51.978;5.934;2022-12-07T07:21:09;8.38;;;3.10;;
75358;SDS011;64046;51.978;5.934;2022-12-07T07:23:38;6.85;;;2.50;;
75358;SDS011;64046;51.978;5.934;2022-12-07T07:26:07;8.57;;;2.20;;
75358;SDS011;64046;51.978;5.934;2022-12-07T07:28:36;8.20;;;2.88;;
75358;SDS011;64046;51.978;5.934;2022-12-07T07:31:06;6.40;;;2.40;;
75358;SDS011;64046;51.978;5.934;2022-12-07T07:33:35;8.52;;;2.95;;
75358;SDS011;64046;51.978;5.934;2022-12-07T07:36:08;8.45;;;2.85;;
75358;SDS011;64046;51.978;5.934;2022-12-07T07:38:37;3.70;;;2.22;;
75358;SDS011;64046;51.978;5.934;2022-12-07T07:41:06;7.93;;;2.55;;
75358;SDS011;64046;51.978;5.934;2022-12-07T07:43:36;5.75;;;2.53;;
75358;SDS011;64046;51.978;5.934;2022-12-07T07:46:05;5.55;;;2.72;;
75358;SDS011;64046;51.978;5.934;2022-12-07T07:48:34;10.88;;;3.65;;
75358;SDS011;64046;51.978;5.934;2022-12-07T07:51:07;8.15;;;2.88;;
75358;SDS011;64046;51.978;5.934;2022-12-07T07:53:37;9.27;;;2.60;;
75358;SDS011;64046;51.978;5.934;2022-12-07T07:56:06;9.38;;;3.08;;
75358;SDS011;64046;51.978;5.934;2022-12-07T07:58:35;10.30;;;2.40;;
75358;SDS011;64046;51.978;5.934;2022-12-07T08:01:08;5.78;;;2.22;;
75358;SDS011;64046;51.978;5.934;2022-12-07T08:03:39;12.02;;;3.10;;
75358;SDS011;64046;51.978;5.934;2022-12-07T08:06:11;8.02;;;3.10;;
75358;SDS011;64046;51.978;5.934;2022-12-07T08:08:40;8.93;;;2.95;;
75358;SDS011;64046;51.978;5.934;2022-12-07T08:11:09;9.15;;;2.20;;
75358;SDS011;64046;51.978;5.934;2022-12-07T08:13:39;8.60;;;3.13;;
75358;SDS011;64046;51.978;5.934;2022-12-07T08:16:09;7.68;;;2.65;;
75358;SDS011;64046;51.978;5.934;2022-12-07T08:18:39;9.88;;;2.47;;
75358;SDS011;64046;51.978;5.934;2022-12-07T08:21:13;6.43;;;2.88;;
75358;SDS011;64046;51.978;5.934;2022-12-07T08:23:43;7.85;;;2.63;;
75358;SDS011;64046;51.978;5.934;2022-12-07T08:26:13;12.52;;;2.83;;
75358;SDS011;64046;51.978;5.934;2022-12-07T08:28:43;14.88;;;3.15;;
75358;SDS011;64046;51.978;5.934;2022-12-07T08:31:14;7.47;;;2.35;;
75358;SDS011;64046;51.978;5.934;2022-12-07T08:33:45;11.25;;;4.07;;
75358;SDS011;64046;51.978;5.934;2022-12-07T08:36:18;7.32;;;2.53;;
75358;SDS011;64046;51.978;5.934;2022-12-07T08:38:47;10.25;;;3.00;;
75358;SDS011;64046;51.978;5.934;2022-12-07T08:41:16;12.73;;;3.50;;
75358;SDS011;64046;51.978;5.934;2022-12-07T08:43:46;13.10;;;3.33;;
75358;SDS011;64046;51.978;5.934;2022-12-07T08:46:16;5.65;;;2.50;;
75358;SDS011;64046;51.978;5.934;2022-12-07T08:48:49;5.00;;;2.00;;
75358;SDS011;64046;51.978;5.934;2022-12-07T08:51:23;10.00;;;2.35;;
75358;SDS011;64046;51.978;5.934;2022-12-07T08:53:52;4.82;;;1.75;;
75358;SDS011;64046;51.978;5.934;2022-12-07T08:56:24;6.97;;;1.70;;
75358;SDS011;64046;51.978;5.934;2022-12-07T08:58:53;8.10;;;1.98;;
75358;SDS011;64046;51.978;5.934;2022-12-07T09:01:23;6.97;;;1.90;;
75358;SDS011;64046;51.978;5.934;2022-12-07T09:03:52;3.60;;;1.50;;
75358;SDS011;64046;51.978;5.934;2022-12-07T09:06:24;6.00;;;2.40;;
75358;SDS011;64046;51.978;5.934;2022-12-07T09:08:55;4.50;;;2.00;;
75358;SDS011;64046;51.978;5.934;2022-12-07T09:11:27;7.75;;;2.35;;
75358;SDS011;64046;51.978;5.934;2022-12-07T09:13:56;8.52;;;2.40;;
75358;SDS011;64046;51.978;5.934;2022-12-07T09:16:25;8.90;;;2.42;;
75358;SDS011;64046;51.978;5.934;2022-12-07T09:18:55;5.43;;;2.03;;
75358;SDS011;64046;51.978;5.934;2022-12-07T09:21:27;13.27;;;2.67;;
75358;SDS011;64046;51.978;5.934;2022-12-07T09:23:56;10.45;;;2.13;;
75358;SDS011;64046;51.978;5.934;2022-12-07T09:26:25;7.00;;;2.42;;
75358;SDS011;64046;51.978;5.934;2022-12-07T09:28:54;10.90;;;2.85;;
75358;SDS011;64046;51.978;5.934;2022-12-07T09:31:23;4.63;;;2.10;;
75358;SDS011;64046;51.978;5.934;2022-12-07T09:33:53;13.30;;;2.90;;
75358;SDS011;64046;51.978;5.934;2022-12-07T09:36:23;8.20;;;2.35;;
75358;SDS011;64046;51.978;5.934;2022-12-07T09:38:55;5.57;;;2.15;;
75358;SDS011;64046;51.978;5.934;2022-12-07T09:41:25;7.45;;;2.10;;
75358;SDS011;64046;51.978;5.934;2022-12-07T09:43:57;7.32;;;2.10;;
75358;SDS011;64046;51.978;5.934;2022-12-07T09:46:33;14.63;;;2.45;;
75358;SDS011;64046;51.978;5.934;2022-12-07T09:49:05;9.93;;;2.90;;
75358;SDS011;64046;51.978;5.934;2022-12-07T09:51:38;7.72;;;1.88;;
75358;SDS011;64046;51.978;5.934;2022-12-07T09:54:11;7.38;;;2.53;;
75358;SDS011;64046;51.978;5.934;2022-12-07T09:56:42;7.35;;;2.08;;
75358;SDS011;64046;51.978;5.934;2022-12-07T09:59:12;10.35;;;2.35;;
75358;SDS011;64046;51.978;5.934;2022-12-07T10:01:46;8.98;;;2.45;;
75358;SDS011;64046;51.978;5.934;2022-12-07T10:04:18;7.03;;;2.55;;
75358;SDS011;64046;51.978;5.934;2022-12-07T10:06:49;7.03;;;2.55;;
75358;SDS011;64046;51.978;5.934;2022-12-07T10:09:22;6.65;;;2.33;;
75358;SDS011;64046;51.978;5.934;2022-12-07T10:14:52;6.43;;;1.90;;
75358;SDS011;64046;51.978;5.934;2022-12-07T10:17:29;13.07;;;2.42;;
75358;SDS011;64046;51.978;5.934;2022-12-07T10:20:14;12.77;;;2.83;;
75358;SDS011;64046;51.978;5.934;2022-12-07T10:22:56;13.23;;;2.78;;
75358;SDS011;64046;51.978;5.934;2022-12-07T10:25:30;5.65;;;2.20;;
75358;SDS011;64046;51.978;5.934;2022-12-07T10:28:03;10.02;;;2.40;;
75358;SDS011;64046;51.978;5.934;2022-12-07T10:30:54;6.10;;;2.13;;
75358;SDS011;64046;51.978;5.934;2022-12-07T10:33:28;10.77;;;2.78;;
75358;SDS011;64046;51.978;5.934;2022-12-07T10:35:59;5.97;;;2.30;;
75358;SDS011;64046;51.978;5.934;2022-12-07T10:38:37;10.43;;;2.10;;
75358;SDS011;64046;51.978;5.934;2022-12-07T10:41:16;3.97;;;2.17;;
75358;SDS011;64046;51.978;5.934;2022-12-07T10:43:46;7.00;;;2.20;;
75358;SDS011;64046;51.978;5.934;2022-12-07T10:46:21;11.20;;;2.35;;
75358;SDS011;64046;51.978;5.934;2022-12-07T10:49:09;6.85;;;2.05;;
75358;SDS011;64046;51.978;5.934;2022-12-07T10:51:58;7.38;;;1.98;;
75358;SDS011;64046;51.978;5.934;2022-12-07T10:54:38;8.90;;;2.22;;
75358;SDS011;64046;51.978;5.934;2022-12-07T10:57:22;6.80;;;2.10;;
75358;SDS011;64046;51.978;5.934;2022-12-07T11:00:07;5.40;;;1.90;;
75358;SDS011;64046;51.978;5.934;2022-12-07T11:02:54;10.75;;;2.33;;
75358;SDS011;64046;51.978;5.934;2022-12-07T11:05:44;8.60;;;2.10;;
75358;SDS011;64046;51.978;5.934;2022-12-07T11:08:19;5.05;;;2.47;;
75358;SDS011;64046;51.978;5.934;2022-12-07T11:11:09;6.18;;;2.15;;
75358;SDS011;64046;51.978;5.934;2022-12-07T11:13:47;7.18;;;1.80;;
75358;SDS011;64046;51.978;5.934;2022-12-07T11:16:25;7.10;;;1.90;;
75358;SDS011;64046;51.978;5.934;2022-12-07T11:19:06;7.30;;;2.10;;
75358;SDS011;64046;51.978;5.934;2022-12-07T11:21:58;9.02;;;2.17;;
75358;SDS011;64046;51.978;5.934;2022-12-07T11:24:33;6.28;;;2.10;;
75358;SDS011;64046;51.978;5.934;2022-12-07T11:27:14;6.72;;;2.38;;
75358;SDS011;64046;51.978;5.934;2022-12-07T11:29:57;4.25;;;2.25;;
75358;SDS011;64046;51.978;5.934;2022-12-07T11:32:42;8.15;;;1.88;;
75358;SDS011;64046;51.978;5.934;2022-12-07T11:35:22;5.05;;;1.77;;
75358;SDS011;64046;51.978;5.934;2022-12-07T11:38:00;11.90;;;2.30;;
75358;SDS011;64046;51.978;5.934;2022-12-07T11:40:36;15.27;;;2.72;;
75358;SDS011;64046;51.978;5.934;2022-12-07T11:43:11;7.25;;;1.80;;
75358;SDS011;64046;51.978;5.934;2022-12-07T11:45:50;6.15;;;1.73;;
75358;SDS011;64046;51.978;5.934;2022-12-07T11:48:29;5.85;;;2.00;;
75358;SDS011;64046;51.978;5.934;2022-12-07T11:51:02;8.13;;;1.90;;
75358;SDS011;64046;51.978;5.934;2022-12-07T11:53:36;6.60;;;1.60;;
75358;SDS011;64046;51.978;5.934;2022-12-07T11:56:08;6.18;;;2.00;;
75358;SDS011;64046;51.978;5.934;2022-12-07T11:58:51;6.15;;;1.77;;
75358;SDS011;64046;51.978;5.934;2022-12-07T12:01:31;5.43;;;1.88;;
75358;SDS011;64046;51.978;5.934;2022-12-07T12:04:16;7.43;;;2.20;;
75358;SDS011;64046;51.978;5.934;2022-12-07T12:06:56;6.95;;;1.98;;
75358;SDS011;64046;51.978;5.934;2022-12-07T12:09:26;5.57;;;1.50;;
75358;SDS011;64046;51.978;5.934;2022-12-07T12:12:07;6.78;;;2.25;;
75358;SDS011;64046;51.978;5.934;2022-12-07T12:14:53;8.05;;;1.95;;
75358;SDS011;64046;51.978;5.934;2022-12-07T12:17:38;7.75;;;2.17;;
75358;SDS011;64046;51.978;5.934;2022-12-07T12:20:20;4.13;;;1.77;;
75358;SDS011;64046;51.978;5.934;2022-12-07T12:22:55;11.45;;;2.10;;
75358;SDS011;64046;51.978;5.934;2022-12-07T12:25:30;4.25;;;1.65;;
75358;SDS011;64046;51.978;5.934;2022-12-07T12:28:15;4.15;;;1.50;;
75358;SDS011;64046;51.978;5.934;2022-12-07T12:33:42;6.20;;;1.60;;
75358;SDS011;64046;51.978;5.934;2022-12-07T12:36:23;6.03;;;1.70;;
75358;SDS011;64046;51.978;5.934;2022-12-07T12:41:54;8.00;;;1.90;;
75358;SDS011;64046;51.978;5.934;2022-12-07T12:44:39;10.05;;;2.00;;
75358;SDS011;64046;51.978;5.934;2022-12-07T12:50:30;6.50;;;2.20;;
75358;SDS011;64046;51.978;5.934;2022-12-07T12:53:05;6.53;;;1.70;;
75358;SDS011;64046;51.978;5.934;2022-12-07T12:55:56;5.85;;;2.40;;
75358;SDS011;64046;51.978;5.934;2022-12-07T12:58:44;4.95;;;2.45;;
75358;SDS011;64046;51.978;5.934;2022-12-07T13:07:47;3.60;;;1.70;;
75358;SDS011;64046;51.978;5.934;2022-12-07T13:10:26;9.75;;;2.25;;
75358;SDS011;64046;51.978;5.934;2022-12-07T13:13:03;8.15;;;2.20;;
75358;SDS011;64046;51.978;5.934;2022-12-07T13:15:54;8.73;;;1.85;;
75358;SDS011;64046;51.978;5.934;2022-12-07T13:18:46;5.10;;;1.73;;
75358;SDS011;64046;51.978;5.934;2022-12-07T13:24:12;7.28;;;1.92;;
75358;SDS011;64046;51.978;5.934;2022-12-07T13:26:42;7.07;;;2.13;;
75358;SDS011;64046;51.978;5.934;2022-12-07T13:29:13;9.60;;;2.03;;
75358;SDS011;64046;51.978;5.934;2022-12-07T13:31:46;10.35;;;2.00;;
75358;SDS011;64046;51.978;5.934;2022-12-07T13:34:30;8.65;;;2.30;;
75358;SDS011;64046;51.978;5.934;2022-12-07T13:37:01;6.53;;;1.80;;
75358;SDS011;64046;51.978;5.934;2022-12-07T13:39:44;7.63;;;2.33;;
75358;SDS011;64046;51.978;5.934;2022-12-07T13:42:18;4.78;;;2.00;;
75358;SDS011;64046;51.978;5.934;2022-12-07T13:44:53;13.13;;;2.25;;
75358;SDS011;64046;51.978;5.934;2022-12-07T13:47:26;7.93;;;2.35;;
75358;SDS011;64046;51.978;5.934;2022-12-07T13:50:20;8.77;;;2.00;;
75358;SDS011;64046;51.978;5.934;2022-12-07T13:52:54;8.63;;;1.90;;
75358;SDS011;64046;51.978;5.934;2022-12-07T13:55:25;11.60;;;2.80;;
75358;SDS011;64046;51.978;5.934;2022-12-07T13:57:55;7.57;;;2.70;;
75358;SDS011;64046;51.978;5.934;2022-12-07T14:00:25;7.40;;;2.10;;
75358;SDS011;64046;51.978;5.934;2022-12-07T14:02:57;5.22;;;1.88;;
75358;SDS011;64046;51.978;5.934;2022-12-07T14:05:31;7.90;;;2.97;;
75358;SDS011;64046;51.978;5.934;2022-12-07T14:08:03;11.13;;;2.03;;
75358;SDS011;64046;51.978;5.934;2022-12-07T14:10:34;7.90;;;1.75;;
75358;SDS011;64046;51.978;5.934;2022-12-07T14:13:20;9.80;;;1.90;;
75358;SDS011;64046;51.978;5.934;2022-12-07T14:15:57;11.75;;;2.63;;
75358;SDS011;64046;51.978;5.934;2022-12-07T14:18:27;5.85;;;1.92;;
75358;SDS011;64046;51.978;5.934;2022-12-07T14:21:14;7.00;;;1.95;;
75358;SDS011;64046;51.978;5.934;2022-12-07T14:23:44;7.30;;;1.70;;
75358;SDS011;64046;51.978;5.934;2022-12-07T14:26:30;5.85;;;1.88;;
75358;SDS011;64046;51.978;5.934;2022-12-07T14:32:13;5.05;;;1.63;;
75358;SDS011;64046;51.978;5.934;2022-12-07T14:34:53;3.67;;;1.23;;
75358;SDS011;64046;51.978;5.934;2022-12-07T14:37:29;3.67;;;1.40;;
75358;SDS011;64046;51.978;5.934;2022-12-07T14:39:59;4.70;;;1.52;;
75358;SDS011;64046;51.978;5.934;2022-12-07T14:42:28;7.25;;;1.60;;
75358;SDS011;64046;51.978;5.934;2022-12-07T14:44:59;5.22;;;1.60;;
75358;SDS011;64046;51.978;5.934;2022-12-07T14:47:29;5.28;;;1.75;;
75358;SDS011;64046;51.978;5.934;2022-12-07T14:49:58;8.63;;;2.00;;
75358;SDS011;64046;51.978;5.934;2022-12-07T14:52:30;6.80;;;2.35;;
75358;SDS011;64046;51.978;5.934;2022-12-07T14:54:59;6.03;;;2.42;;
75358;SDS011;64046;51.978;5.934;2022-12-07T14:57:28;7.20;;;2.05;;
75358;SDS011;64046;51.978;5.934;2022-12-07T14:59:57;6.25;;;1.92;;
75358;SDS011;64046;51.978;5.934;2022-12-07T15:02:26;5.72;;;1.77;;
75358;SDS011;64046;51.978;5.934;2022-12-07T15:04:56;8.82;;;2.20;;
75358;SDS011;64046;51.978;5.934;2022-12-07T15:07:25;10.05;;;3.65;;
75358;SDS011;64046;51.978;5.934;2022-12-07T15:09:56;6.68;;;3.03;;
75358;SDS011;64046;51.978;5.934;2022-12-07T15:12:26;6.07;;;2.55;;
75358;SDS011;64046;51.978;5.934;2022-12-07T15:14:55;9.98;;;3.65;;
75358;SDS011;64046;51.978;5.934;2022-12-07T15:17:24;7.75;;;2.78;;
75358;SDS011;64046;51.978;5.934;2022-12-07T15:19:53;8.38;;;3.65;;
75358;SDS011;64046;51.978;5.934;2022-12-07T15:22:23;9.13;;;3.20;;
75358;SDS011;64046;51.978;5.934;2022-12-07T15:24:52;9.65;;;4.07;;
75358;SDS011;64046;51.978;5.934;2022-12-07T15:27:24;10.23;;;3.63;;
75358;SDS011;64046;51.978;5.934;2022-12-07T15:29:53;8.88;;;2.72;;
75358;SDS011;64046;51.978;5.934;2022-12-07T15:32:22;10.25;;;2.95;;
75358;SDS011;64046;51.978;5.934;2022-12-07T15:34:51;7.50;;;2.38;;
75358;SDS011;64046;51.978;5.934;2022-12-07T15:37:20;9.48;;;2.22;;
75358;SDS011;64046;51.978;5.934;2022-12-07T15:39:50;7.75;;;2.63;;
75358;SDS011;64046;51.978;5.934;2022-12-07T15:42:19;8.10;;;2.22;;
75358;SDS011;64046;51.978;5.934;2022-12-07T15:44:51;7.35;;;2.70;;
75358;SDS011;64046;51.978;5.934;2022-12-07T15:47:29;4.53;;;2.58;;
75358;SDS011;64046;51.978;5.934;2022-12-07T15:49:58;4.80;;;2.40;;